Details From PAJN - Juneau Intl
To CYXY - Whitehorse Intl
Flight Number -
Tags Generated
Created
Modified
Stats Distance 142 nm / 263 km
Max Altitude 0 ft / 0 m
Waypoints 3
Social Downloads 9
Likes 0
Share

Download

Looking for another format? Having issues loading an existing format? Contact us
Advertisement - Login to hide

Notes

Generated

Route

PAJN ZXY CYXY

ID Type Via Altitude (ft/m) Position (lat/lon) Dist (leg/tot) Name
O PAJN APT - 0 / 0 58.35793 / -134.59756 - / 0 nm
ZXY NDB - 0 / 0 60.63639 / -135.00889 137 / 137 nm KLONDIKE NDB
O CYXY APT - 0 / 0 60.71102 / -135.07253 4 / 142 nm WHITEHORSE INTL

Altitude Profile

Advertisement - Login to hide

PAJN

Details ICAO PAJN (JNU)
Name Juneau Intl
Region USA (Alaska)
Timezone America/Juneau (UTC-8.0)
Stats Elevation 20 ft / 6 m (AMSL)
Location 58.355000° -134.576000°
Runways 1
Magnetic Variation 17.791° E

METAR

PAJN 080753Z COR 08006KT 6SM -RA BR FEW003 BKN046 OVC060 12/11 A3020

Decode

TAF

PAJN 080530Z 0806/0906 10006KT P6SM FEW004 SCT022 BKN040 FM080900 VRB04KT 3SM BR BKN005 OVC050 FM081800 20008KT P6SM BKN050

Decode

Departure Runways

ID Width Length Bearing (true/mag) Surface Threshold Overrun Markings Lighting
08 151 ft / 46 m 8,867 ft / 2,703 m 104.87° / 87.07° ASPHALT 220 ft / 67 m 0 ft / 0 m APP CENTERLINE EDGE THRESHOLD MALSF
26 151 ft / 46 m 8,867 ft / 2,703 m 284.90° / 267.11° ASPHALT 217 ft / 66 m 0 ft / 0 m APP CENTERLINE EDGE THRESHOLD MALS

CYXY

Details ICAO CYXY (YXY)
Name Whitehorse/Erik Nielsen International Airport
Region Canada
Timezone America/Whitehorse (UTC-7.0)
Stats Elevation 2,316 ft / 706 m (AMSL)
Location 60.711700° -135.067000°
Runways 3
Magnetic Variation 18.115° E

METAR

CYXY 080800Z 15009KT 15SM SCT200 10/04 A2999 RMK CI3 AURBO SLP180

Decode

TAF

TAF CYXY 080542Z 0806/0906 20012KT P6SM SCT080 BKN200 FM081000 16010KT P6SM SCT050 SCT150 FM081800 16010G20KT P6SM SCT060 SCT110 BKN250 TEMPO 0818/0824 BKN060 FM090000 18012KT P6SM SCT070 RMK NXT FCST BY 081200Z

Decode

Destination Runways

ID Width Length Bearing (true/mag) Surface Threshold Overrun Markings Lighting
02 75 ft / 23 m 1,834 ft / 559 m 35.54° / 17.43° ASPHALT 0 ft / 0 m 0 ft / 0 m VISUAL
14L 100 ft / 30 m 5,313 ft / 1,619 m 160.04° / 141.93° ASPHALT 0 ft / 0 m 0 ft / 0 m PREC-APP
14R 150 ft / 46 m 8,988 ft / 2,740 m 159.42° / 141.31° ASPHALT 591 ft / 180 m 0 ft / 0 m PREC-APP EDGE THRESHOLD
20 75 ft / 23 m 1,834 ft / 559 m 215.55° / 197.43° ASPHALT 0 ft / 0 m 0 ft / 0 m VISUAL
32L 150 ft / 46 m 8,988 ft / 2,740 m 339.44° / 321.32° ASPHALT 1,168 ft / 356 m 0 ft / 0 m PREC-APP EDGE THRESHOLD SSALR
32R 100 ft / 30 m 5,313 ft / 1,619 m 340.05° / 321.94° ASPHALT 1,322 ft / 403 m 0 ft / 0 m PREC-APP

Popular Alternatives